עמוד ראשי
METAR-TAF:

METAR-TAF

שדות תעופה :

Shell Mera, אקוודור

קו רוחב: 01-30-19S, קו אורך: 078-03-46W, גובה: 1056מטר

תצפית מזג אוויר נוכחית

הדו"ח נערך לפני 1 שעות ו 3דקות, בשעה 16:00 UTC
רוח 5קשר מכיוון דרום-מזרח
טמפרטורת 24 צלסיוס
לחות 83%
לחץ 1019 hPa
ראות 10 קילומטר או יותר
מעט עננים בגובה 2300רגל
עננים בינוניים בגובה 10000רגל

METAR: SESM 241600Z 14005KT 9999 FEW023 BKN100 24/21 Q1019 RMK A3010

זמן: 12:03 (17:03 UTC)


TAF: חסר

תצפיות ותחזיות מזג אוויר לגבי יותר מ- 4,000 שדות תעופה ברחבי העולם. דוחות METAR ו- TAF.

התחנות הזמינות מסומנות בנקודות צהובות ואדומות על גבי המפה.

העבר את העכבר לנקודה הצבעונית על מנת לראות את שם התחנה.

לאחר מכן, לחץ כדי לראות את תוכן ואת תחזיות מזג האוויר.

כדי לשנות את המפה: לחץ על הכפתורים הירוקים עם הפלוס השחור כדי להתקרב; על הכפתור הירוק עם המקף כדי להתרחק; או בחיצים הירוקים למפות סמוכות.


METAR-TAF: